createdAt,value
2023-03-22T00:01:43.238Z,100.00
2023-03-22T00:04:11.418Z,100.00
2023-03-22T00:06:39.349Z,100.00
2023-03-22T00:09:07.227Z,100.00
2023-03-22T00:11:35.233Z,100.00
2023-03-22T00:14:03.281Z,100.00
2023-03-22T00:16:31.622Z,100.00
2023-03-22T00:18:59.604Z,100.00
2023-03-22T00:21:30.120Z,100.00
2023-03-22T00:23:58.081Z,100.00
2023-03-22T00:26:25.992Z,100.00
2023-03-22T00:28:53.862Z,100.00
2023-03-22T00:31:21.754Z,100.00
2023-03-22T00:33:49.647Z,100.00
2023-03-22T00:36:17.640Z,100.00
2023-03-22T00:38:45.577Z,100.00
2023-03-22T00:41:14.590Z,100.00
2023-03-22T00:43:42.643Z,100.00
2023-03-22T00:46:10.895Z,100.00
2023-03-22T00:48:38.906Z,100.00
2023-03-22T00:51:07.640Z,100.00
2023-03-22T00:53:36.709Z,100.00
2023-03-22T00:56:05.677Z,100.00
2023-03-22T00:58:42.304Z,100.00
2023-03-22T01:01:14.177Z,100.00
2023-03-22T01:03:43.004Z,100.00
2023-03-22T01:06:11.437Z,100.00
2023-03-22T01:08:39.592Z,100.00
2023-03-22T01:11:07.875Z,100.00
2023-03-22T01:13:37.735Z,100.00
2023-03-22T01:16:06.755Z,100.00
2023-03-22T01:18:35.214Z,100.00
2023-03-22T01:21:03.626Z,100.00
2023-03-22T01:23:32.127Z,100.00
2023-03-22T01:26:00.251Z,100.00
2023-03-22T01:28:29.109Z,100.00
2023-03-22T01:30:57.218Z,100.00
2023-03-22T01:33:25.231Z,100.00
2023-03-22T01:35:53.413Z,100.00
2023-03-22T01:38:21.763Z,100.00
2023-03-22T01:40:57.311Z,100.00
2023-03-22T01:43:25.436Z,100.00
2023-03-22T01:45:53.990Z,100.00
2023-03-22T01:48:37.298Z,100.00
2023-03-22T01:51:17.054Z,100.00
2023-03-22T01:54:21.184Z,100.00
2023-03-22T01:56:49.465Z,100.00
2023-03-22T01:59:23.415Z,100.00
2023-03-22T02:02:22.159Z,100.00
2023-03-22T02:04:58.282Z,100.00
2023-03-22T02:07:28.367Z,100.00
2023-03-22T02:09:58.346Z,100.00
2023-03-22T02:12:37.814Z,100.00
2023-03-22T02:15:30.122Z,100.00
2023-03-22T02:18:51.533Z,100.00
2023-03-22T02:21:56.862Z,100.00
2023-03-22T02:24:35.891Z,100.00
2023-03-22T02:27:12.869Z,100.00
2023-03-22T02:29:48.921Z,100.00
2023-03-22T02:32:48.159Z,100.00
2023-03-22T02:35:48.764Z,100.00
2023-03-22T02:38:28.873Z,100.00
2023-03-22T02:41:08.919Z,100.00
2023-03-22T02:43:53.320Z,100.00
2023-03-22T02:46:57.127Z,100.00
2023-03-22T02:49:35.921Z,100.00
2023-03-22T02:52:10.445Z,100.00
2023-03-22T02:54:40.230Z,100.00
2023-03-22T02:57:17.168Z,100.00
2023-03-22T02:59:45.088Z,100.00
2023-03-22T03:02:13.746Z,100.00
2023-03-22T03:04:45.319Z,100.00
2023-03-22T03:07:14.588Z,100.00
2023-03-22T03:09:42.544Z,100.00
2023-03-22T03:12:16.185Z,100.00
2023-03-22T03:14:44.226Z,100.00
2023-03-22T03:17:18.327Z,100.00
2023-03-22T03:20:20.071Z,100.00
2023-03-22T03:22:54.666Z,100.00
2023-03-22T03:25:43.737Z,100.00
2023-03-22T03:28:38.582Z,100.00
2023-03-22T03:31:09.765Z,100.00
2023-03-22T03:33:57.384Z,100.00
2023-03-22T03:36:25.350Z,100.00
2023-03-22T03:38:53.374Z,100.00
2023-03-22T03:41:23.811Z,100.00
2023-03-22T03:43:51.783Z,100.00
2023-03-22T03:46:20.290Z,100.00
2023-03-22T03:48:49.146Z,100.00
2023-03-22T03:51:17.062Z,100.00
2023-03-22T03:53:45.107Z,100.00
2023-03-22T03:56:13.110Z,100.00
2023-03-22T03:58:44.818Z,100.00
2023-03-22T04:01:12.883Z,100.00
2023-03-22T04:04:07.557Z,100.00
2023-03-22T04:06:45.218Z,100.00
2023-03-22T04:09:17.651Z,100.00
2023-03-22T04:11:49.077Z,100.00
2023-03-22T04:14:17.483Z,100.00
2023-03-22T04:16:47.990Z,100.00
2023-03-22T04:19:17.364Z,100.00
2023-03-22T04:21:46.025Z,100.00
2023-03-22T04:24:14.180Z,100.00
2023-03-22T04:26:43.995Z,100.00
2023-03-22T04:29:36.403Z,100.00
2023-03-22T04:32:28.762Z,100.00
2023-03-22T04:34:57.579Z,100.00
2023-03-22T04:37:27.177Z,100.00
2023-03-22T04:40:16.680Z,100.00
2023-03-22T04:43:04.269Z,100.00
2023-03-22T04:45:46.367Z,100.00
2023-03-22T04:48:20.675Z,100.00
2023-03-22T04:50:49.368Z,100.00
2023-03-22T04:53:17.601Z,100.00
2023-03-22T04:55:46.662Z,100.00
2023-03-22T04:58:16.644Z,100.00
2023-03-22T05:00:45.562Z,100.00
2023-03-22T05:03:19.681Z,100.00
2023-03-22T05:05:56.542Z,100.00
2023-03-22T05:08:27.030Z,100.00
2023-03-22T05:10:55.873Z,100.00
2023-03-22T05:13:26.118Z,100.00
2023-03-22T05:15:55.367Z,100.00
2023-03-22T05:18:30.555Z,100.00
2023-03-22T05:20:59.030Z,100.00
2023-03-22T05:23:27.502Z,100.00
2023-03-22T05:25:59.113Z,100.00
2023-03-22T05:28:32.824Z,100.00
2023-03-22T05:31:16.530Z,100.00
2023-03-22T05:33:58.322Z,100.00
2023-03-22T05:36:30.120Z,100.00
2023-03-22T05:39:20.590Z,100.00
2023-03-22T05:41:49.377Z,100.00
2023-03-22T05:44:17.410Z,100.00
2023-03-22T05:46:55.599Z,100.00
2023-03-22T05:49:34.938Z,100.00
2023-03-22T05:52:06.323Z,100.00
2023-03-22T05:55:00.276Z,100.00
2023-03-22T05:57:30.355Z,100.00
2023-03-22T05:59:59.309Z,100.00
2023-03-22T06:02:41.632Z,100.00
2023-03-22T06:05:13.666Z,100.00
2023-03-22T06:07:43.576Z,100.00
2023-03-22T06:10:18.048Z,100.00
2023-03-22T06:12:47.476Z,100.00
2023-03-22T06:15:22.912Z,100.00
2023-03-22T06:18:02.861Z,100.00
2023-03-22T06:20:46.454Z,100.00
2023-03-22T06:23:27.821Z,100.00
2023-03-22T06:25:55.957Z,100.00
2023-03-22T06:28:24.142Z,100.00
2023-03-22T06:30:54.832Z,100.00
2023-03-22T06:33:30.600Z,100.00
2023-03-22T06:36:07.660Z,100.00
2023-03-22T06:38:43.557Z,100.00
2023-03-22T06:41:12.177Z,100.00
2023-03-22T06:43:40.110Z,100.00
2023-03-22T06:46:17.399Z,100.00
2023-03-22T06:48:54.828Z,100.00
2023-03-22T06:51:23.059Z,100.00
2023-03-22T06:53:51.366Z,100.00
2023-03-22T06:56:20.262Z,100.00
2023-03-22T06:58:54.889Z,100.00
2023-03-22T07:01:23.001Z,100.00
2023-03-22T07:03:51.204Z,100.00
2023-03-22T07:06:23.154Z,100.00
2023-03-22T07:08:52.244Z,100.00
2023-03-22T07:11:27.318Z,100.00
2023-03-22T07:14:00.379Z,100.00
2023-03-22T07:16:35.558Z,100.00
2023-03-22T07:19:05.388Z,100.00
2023-03-22T07:21:33.558Z,100.00
2023-03-22T07:24:07.870Z,100.00
2023-03-22T07:26:42.177Z,100.00
2023-03-22T07:29:11.446Z,100.00
2023-03-22T07:31:40.244Z,100.00
2023-03-22T07:34:12.225Z,100.00
2023-03-22T07:37:03.819Z,100.00
2023-03-22T07:39:32.105Z,100.00
2023-03-22T07:42:00.329Z,100.00
2023-03-22T07:44:54.286Z,100.00
2023-03-22T07:47:40.060Z,100.00
2023-03-22T07:50:25.568Z,100.00
2023-03-22T07:52:56.652Z,100.00
2023-03-22T07:55:24.749Z,100.00
2023-03-22T07:57:53.841Z,100.00
2023-03-22T08:00:22.576Z,100.00
2023-03-22T08:02:56.634Z,100.00
2023-03-22T08:05:42.424Z,100.00
2023-03-22T08:08:13.769Z,100.00
2023-03-22T08:10:42.148Z,100.00
2023-03-22T08:13:10.758Z,100.00
2023-03-22T08:15:39.180Z,100.00
2023-03-22T08:18:08.948Z,100.00
2023-03-22T08:20:41.353Z,100.00
2023-03-22T08:23:16.194Z,100.00
2023-03-22T08:25:53.448Z,100.00
2023-03-22T08:28:22.565Z,100.00
2023-03-22T08:30:51.002Z,100.00
2023-03-22T08:33:23.340Z,100.00
2023-03-22T08:35:51.735Z,100.00
2023-03-22T08:38:20.175Z,100.00
2023-03-22T08:40:51.209Z,100.00
2023-03-22T08:43:22.733Z,100.00
2023-03-22T08:45:51.919Z,100.00
2023-03-22T08:48:21.206Z,100.00
2023-03-22T08:51:06.762Z,100.00
2023-03-22T08:54:00.358Z,100.00
2023-03-22T08:56:46.913Z,100.00
2023-03-22T08:59:24.384Z,100.00
2023-03-22T09:02:04.242Z,100.00
2023-03-22T09:04:32.357Z,100.00
2023-03-22T09:07:00.419Z,100.00
2023-03-22T09:09:28.465Z,100.00
2023-03-22T09:11:58.270Z,100.00
2023-03-22T09:14:26.305Z,100.00
2023-03-22T09:16:54.648Z,100.00
2023-03-22T09:19:22.655Z,100.00
2023-03-22T09:21:50.789Z,100.00
2023-03-22T09:24:28.091Z,100.00
2023-03-22T09:26:58.347Z,100.00
2023-03-22T09:29:26.347Z,100.00
2023-03-22T09:31:54.311Z,100.00
2023-03-22T09:34:27.817Z,100.00
2023-03-22T09:36:58.771Z,100.00
2023-03-22T09:39:29.409Z,100.00
2023-03-22T09:42:01.318Z,100.00
2023-03-22T09:44:32.484Z,100.00
2023-03-22T09:47:02.309Z,100.00
2023-03-22T09:49:52.528Z,100.00
2023-03-22T09:52:24.456Z,100.00
2023-03-22T09:54:53.422Z,100.00
2023-03-22T09:57:29.739Z,100.00
2023-03-22T10:00:21.022Z,100.00
2023-03-22T10:02:59.148Z,100.00
2023-03-22T10:05:39.095Z,100.00
2023-03-22T10:08:26.315Z,100.00
2023-03-22T10:10:54.577Z,100.00
2023-03-22T10:13:25.700Z,100.00
2023-03-22T10:15:59.996Z,100.00
2023-03-22T10:18:47.395Z,100.00
2023-03-22T10:21:17.446Z,100.00
2023-03-22T10:23:56.500Z,100.00
2023-03-22T10:26:37.560Z,100.00
2023-03-22T10:29:14.264Z,100.00
2023-03-22T10:31:43.620Z,100.00
2023-03-22T10:34:21.467Z,100.00
2023-03-22T10:36:51.225Z,100.00
2023-03-22T10:39:32.149Z,100.00
2023-03-22T10:42:02.040Z,100.00
2023-03-22T10:44:31.532Z,100.00
2023-03-22T10:46:59.956Z,100.00
2023-03-22T10:49:31.768Z,100.00
2023-03-22T10:52:03.657Z,100.00
2023-03-22T10:54:31.685Z,100.00
2023-03-22T10:56:59.653Z,100.00
2023-03-22T10:59:49.847Z,100.00
2023-03-22T11:02:30.057Z,100.00
2023-03-22T11:05:03.982Z,100.00
2023-03-22T11:07:34.761Z,100.00
2023-03-22T11:10:08.582Z,100.00
2023-03-22T11:12:40.097Z,100.00
2023-03-22T11:15:23.506Z,100.00
2023-03-22T11:17:51.654Z,99.97
2023-03-22T11:20:20.519Z,100.00
2023-03-22T11:22:49.622Z,99.71
2023-03-22T11:25:28.478Z,99.63
2023-03-22T11:28:06.124Z,95.43
2023-03-22T11:30:34.661Z,95.78
2023-03-22T11:33:08.695Z,95.68
2023-03-22T11:35:38.390Z,93.09
2023-03-22T11:38:06.360Z,94.24
2023-03-22T11:40:35.794Z,92.88
2023-03-22T11:43:18.282Z,92.02
2023-03-22T11:45:46.381Z,88.21
2023-03-22T11:48:21.466Z,89.35
2023-03-22T11:50:49.635Z,88.68
2023-03-22T11:53:19.804Z,89.38
2023-03-22T11:55:49.057Z,90.45
2023-03-22T11:58:45.970Z,89.89
2023-03-22T12:01:19.286Z,87.84
2023-03-22T12:03:50.018Z,89.16
2023-03-22T12:06:24.812Z,90.05
2023-03-22T12:09:06.618Z,90.18
2023-03-22T12:11:41.689Z,89.64
2023-03-22T12:14:17.423Z,90.29
2023-03-22T12:16:49.989Z,88.51
2023-03-22T12:19:36.742Z,88.94
2023-03-22T12:22:29.713Z,87.52
2023-03-22T12:24:58.998Z,87.62
2023-03-22T12:27:29.864Z,84.32
2023-03-22T12:30:10.407Z,84.37
2023-03-22T12:32:42.114Z,84.17
2023-03-22T12:35:18.301Z,83.79
2023-03-22T12:37:48.554Z,81.94
2023-03-22T12:40:23.146Z,82.42
2023-03-22T12:43:19.841Z,81.22
2023-03-22T12:45:53.359Z,78.98
2023-03-22T12:48:28.732Z,71.21
2023-03-22T12:50:58.668Z,69.30
2023-03-22T12:53:28.836Z,68.05
2023-03-22T12:55:56.873Z,66.60
2023-03-22T12:58:25.976Z,65.75
2023-03-22T13:01:23.074Z,65.90
2023-03-22T13:03:54.044Z,65.70
2023-03-22T13:06:32.722Z,65.27
2023-03-22T13:09:15.627Z,64.19
2023-03-22T13:11:45.726Z,65.18
2023-03-22T13:14:56.334Z,65.36
2023-03-22T13:17:24.601Z,65.39
2023-03-22T13:20:11.733Z,65.07
2023-03-22T13:22:41.708Z,65.28
2023-03-22T13:25:13.360Z,66.12
2023-03-22T13:28:00.700Z,65.84
2023-03-22T13:31:04.280Z,65.15
2023-03-22T13:33:34.858Z,64.89
2023-03-22T13:36:07.541Z,64.36
2023-03-22T13:38:42.799Z,64.09
2023-03-22T13:41:14.052Z,64.26
2023-03-22T13:43:52.150Z,63.72
2023-03-22T13:46:20.802Z,63.18
2023-03-22T13:48:49.581Z,63.49
2023-03-22T13:51:21.333Z,64.07
2023-03-22T13:54:13.768Z,63.92
2023-03-22T13:56:47.907Z,64.32
2023-03-22T13:59:25.672Z,64.65
2023-03-22T14:02:16.079Z,64.71
2023-03-22T14:04:56.290Z,65.11
2023-03-22T14:07:27.614Z,65.26
2023-03-22T14:10:05.728Z,64.46
2023-03-22T14:12:52.623Z,63.87
2023-03-22T14:15:32.141Z,63.43
2023-03-22T14:18:04.581Z,63.30
2023-03-22T14:20:36.682Z,62.85
